createdAt,value
2023-04-06T00:00:59.041Z,9.35
2023-04-06T00:03:26.421Z,6.72
2023-04-06T00:05:54.131Z,6.57
2023-04-06T00:08:22.443Z,6.82
2023-04-06T00:10:49.293Z,5.53
2023-04-06T00:13:16.200Z,5.88
2023-04-06T00:15:43.093Z,6.85
2023-04-06T00:18:10.201Z,6.70
2023-04-06T00:20:37.198Z,5.63
2023-04-06T00:23:04.245Z,5.93
2023-04-06T00:25:31.229Z,7.13
2023-04-06T00:27:58.115Z,6.88
2023-04-06T00:30:24.956Z,5.00
2023-04-06T00:32:51.848Z,5.15
2023-04-06T00:35:18.800Z,4.20
2023-04-06T00:37:49.216Z,4.22
2023-04-06T00:40:16.614Z,5.60
2023-04-06T00:42:43.655Z,4.32
2023-04-06T00:45:11.746Z,5.20
2023-04-06T00:47:38.857Z,4.32
2023-04-06T00:50:06.653Z,4.93
2023-04-06T00:52:35.530Z,4.00
2023-04-06T00:55:03.976Z,4.80
2023-04-06T00:57:32.408Z,4.35
2023-04-06T00:59:59.710Z,4.18
2023-04-06T01:02:27.182Z,4.15
2023-04-06T01:04:55.382Z,5.85
2023-04-06T01:07:22.470Z,3.97
2023-04-06T01:09:49.519Z,4.13
2023-04-06T01:12:16.555Z,5.00
2023-04-06T01:14:43.507Z,5.53
2023-04-06T01:17:10.753Z,4.63
2023-04-06T01:19:38.238Z,4.07
2023-04-06T01:22:05.558Z,4.13
2023-04-06T01:24:33.181Z,3.95
2023-04-06T01:27:00.295Z,3.85
2023-04-06T01:29:27.404Z,3.55
2023-04-06T01:31:54.383Z,3.75
2023-04-06T01:34:21.444Z,5.10
2023-04-06T01:36:48.301Z,3.95
2023-04-06T01:39:15.664Z,3.70
2023-04-06T01:41:42.554Z,5.05
2023-04-06T01:44:09.469Z,4.32
2023-04-06T01:46:36.405Z,4.03
2023-04-06T01:49:03.253Z,3.95
2023-04-06T01:51:31.116Z,3.70
2023-04-06T01:53:58.063Z,4.30
2023-04-06T01:56:25.563Z,4.80
2023-04-06T01:58:52.480Z,3.55
2023-04-06T02:01:19.394Z,3.80
2023-04-06T02:03:46.247Z,4.38
2023-04-06T02:06:13.085Z,4.30
2023-04-06T02:08:39.970Z,3.40
2023-04-06T02:11:06.843Z,3.75
2023-04-06T02:13:34.142Z,3.42
2023-04-06T02:16:01.078Z,3.60
2023-04-06T02:18:29.146Z,3.83
2023-04-06T02:20:56.760Z,3.90
2023-04-06T02:23:23.729Z,3.55
2023-04-06T02:25:51.247Z,4.07
2023-04-06T02:28:18.184Z,3.92
2023-04-06T02:30:45.280Z,3.72
2023-04-06T02:33:12.124Z,3.58
2023-04-06T02:35:39.158Z,5.20
2023-04-06T02:38:06.076Z,3.60
2023-04-06T02:40:32.965Z,4.38
2023-04-06T02:42:59.825Z,3.88
2023-04-06T02:45:27.346Z,4.78
2023-04-06T02:47:54.273Z,3.42
2023-04-06T02:50:21.224Z,3.75
2023-04-06T02:52:48.088Z,3.90
2023-04-06T02:55:15.632Z,4.95
2023-04-06T02:57:42.519Z,4.18
2023-04-06T03:00:10.500Z,3.72
2023-04-06T03:02:37.486Z,3.97
2023-04-06T03:05:04.924Z,4.07
2023-04-06T03:07:31.821Z,4.10
2023-04-06T03:09:58.745Z,3.33
2023-04-06T03:12:25.692Z,4.88
2023-04-06T03:14:52.529Z,2.97
2023-04-06T03:17:19.389Z,4.38
2023-04-06T03:19:46.301Z,4.22
2023-04-06T03:22:13.120Z,4.22
2023-04-06T03:24:40.009Z,3.30
2023-04-06T03:27:07.292Z,3.67
2023-04-06T03:29:34.223Z,3.90
2023-04-06T03:32:01.125Z,3.40
2023-04-06T03:34:28.191Z,3.42
2023-04-06T03:37:07.094Z,3.72
2023-04-06T03:39:37.272Z,4.25
2023-04-06T03:42:04.288Z,4.00
2023-04-06T03:44:31.333Z,4.25
2023-04-06T03:46:58.232Z,4.10
2023-04-06T03:49:25.243Z,4.25
2023-04-06T03:51:52.184Z,3.83
2023-04-06T03:54:19.015Z,4.07
2023-04-06T03:56:46.037Z,3.83
2023-04-06T03:59:12.972Z,6.57
2023-04-06T04:01:40.455Z,3.45
2023-04-06T04:04:07.375Z,3.75
2023-04-06T04:06:34.277Z,4.60
2023-04-06T04:09:01.122Z,3.47
2023-04-06T04:11:27.953Z,3.50
2023-04-06T04:13:54.994Z,3.33
2023-04-06T04:16:21.987Z,3.65
2023-04-06T04:18:49.769Z,3.30
2023-04-06T04:21:16.691Z,4.40
2023-04-06T04:23:43.527Z,3.75
2023-04-06T04:26:11.098Z,4.78
2023-04-06T04:28:37.996Z,4.43
2023-04-06T04:31:04.987Z,3.70
2023-04-06T04:33:31.844Z,3.78
2023-04-06T04:35:58.738Z,3.92
2023-04-06T04:38:25.727Z,4.13
2023-04-06T04:40:52.672Z,3.97
2023-04-06T04:43:19.586Z,4.05
2023-04-06T04:45:46.465Z,3.40
2023-04-06T04:48:13.605Z,3.90
2023-04-06T04:50:40.750Z,3.95
2023-04-06T04:53:07.606Z,4.65
2023-04-06T04:55:34.647Z,3.90
2023-04-06T04:58:01.802Z,5.88
2023-04-06T05:00:28.742Z,3.75
2023-04-06T05:02:55.668Z,3.95
2023-04-06T05:05:22.658Z,4.30
2023-04-06T05:07:49.524Z,4.07
2023-04-06T05:10:16.524Z,5.03
2023-04-06T05:12:43.584Z,4.35
2023-04-06T05:15:11.244Z,4.05
2023-04-06T05:17:38.347Z,4.43
2023-04-06T05:20:08.566Z,5.88
2023-04-06T05:22:35.454Z,4.20
2023-04-06T05:25:03.728Z,3.83
2023-04-06T05:27:30.688Z,4.30
2023-04-06T05:29:57.962Z,4.43
2023-04-06T05:32:25.774Z,4.35
2023-04-06T05:34:52.912Z,4.15
2023-04-06T05:37:19.913Z,5.78
2023-04-06T05:39:46.793Z,4.72
2023-04-06T05:42:13.696Z,4.03
2023-04-06T05:44:41.351Z,4.43
2023-04-06T05:47:08.304Z,4.10
2023-04-06T05:49:35.993Z,4.75
2023-04-06T05:52:02.929Z,4.45
2023-04-06T05:54:29.857Z,4.07
2023-04-06T05:56:56.825Z,4.43
2023-04-06T05:59:24.828Z,4.22
2023-04-06T06:01:51.799Z,4.30
2023-04-06T06:04:18.783Z,4.80
2023-04-06T06:06:45.728Z,4.45
2023-04-06T06:09:12.645Z,9.70
2023-04-06T06:11:39.749Z,4.90
2023-04-06T06:14:06.652Z,10.13
2023-04-06T06:16:34.003Z,5.03
2023-04-06T06:19:01.108Z,4.95
2023-04-06T06:21:28.075Z,5.10
2023-04-06T06:23:55.640Z,6.18
2023-04-06T06:26:22.827Z,5.40
2023-04-06T06:28:49.822Z,5.13
2023-04-06T06:31:17.817Z,5.47
2023-04-06T06:33:44.687Z,6.05
2023-04-06T06:36:11.630Z,6.40
2023-04-06T06:38:39.217Z,6.00
2023-04-06T06:41:06.135Z,5.45
2023-04-06T06:43:32.996Z,5.07
2023-04-06T06:46:00.128Z,8.93
2023-04-06T06:48:27.341Z,4.90
2023-04-06T06:50:54.506Z,5.00
2023-04-06T06:53:21.674Z,5.95
2023-04-06T06:55:49.963Z,4.50
2023-04-06T06:58:20.955Z,4.75
2023-04-06T07:00:48.223Z,4.90
2023-04-06T07:03:15.403Z,6.63
2023-04-06T07:05:51.069Z,4.65
2023-04-06T07:08:18.050Z,4.80
2023-04-06T07:10:44.959Z,5.65
2023-04-06T07:13:12.156Z,6.80
2023-04-06T07:15:39.254Z,4.78
2023-04-06T07:18:06.287Z,4.82
2023-04-06T07:20:33.232Z,5.40
2023-04-06T07:23:00.302Z,5.22
2023-04-06T07:25:27.244Z,3.72
2023-04-06T07:27:54.151Z,4.25
2023-04-06T07:30:22.884Z,6.65
2023-04-06T07:32:50.280Z,4.22
2023-04-06T07:35:17.515Z,4.65
2023-04-06T07:37:44.426Z,4.22
2023-04-06T07:40:11.706Z,4.05
2023-04-06T07:42:38.663Z,6.45
2023-04-06T07:45:06.102Z,4.00
2023-04-06T07:47:33.085Z,4.15
2023-04-06T07:50:00.326Z,3.90
2023-04-06T07:52:27.223Z,4.60
2023-04-06T07:54:54.232Z,4.07
2023-04-06T07:57:21.087Z,4.63
2023-04-06T07:59:47.982Z,5.10
2023-04-06T08:02:14.960Z,7.45
2023-04-06T08:04:43.371Z,5.15
2023-04-06T08:07:11.806Z,4.97
2023-04-06T08:09:38.743Z,4.28
2023-04-06T08:12:05.819Z,4.53
2023-04-06T08:14:32.749Z,4.95
2023-04-06T08:16:59.630Z,3.95
2023-04-06T08:19:26.471Z,4.32
2023-04-06T08:21:53.641Z,3.70
2023-04-06T08:24:20.554Z,4.03
2023-04-06T08:26:47.510Z,3.95
2023-04-06T08:29:14.431Z,4.07
2023-04-06T08:31:41.486Z,3.47
2023-04-06T08:34:10.175Z,3.42
2023-04-06T08:36:38.427Z,3.70
2023-04-06T08:39:05.695Z,3.58
2023-04-06T08:41:33.089Z,4.45
2023-04-06T08:44:04.053Z,3.85
2023-04-06T08:46:31.983Z,3.20
2023-04-06T08:49:02.346Z,3.00
2023-04-06T08:51:31.399Z,3.15
2023-04-06T08:54:00.745Z,3.67
2023-04-06T08:56:29.439Z,3.42
2023-04-06T08:58:57.423Z,3.70
2023-04-06T09:01:28.439Z,3.58
2023-04-06T09:04:08.824Z,4.18
2023-04-06T09:09:04.849Z,4.80
2023-04-06T09:11:52.905Z,3.58
2023-04-06T09:14:38.988Z,3.28
2023-04-06T09:17:06.753Z,3.20
2023-04-06T09:19:33.954Z,3.22
2023-04-06T09:22:10.650Z,3.22
2023-04-06T09:24:53.585Z,3.65
2023-04-06T09:27:38.784Z,3.47
2023-04-06T09:30:15.049Z,3.17
2023-04-06T09:32:53.808Z,3.15
2023-04-06T09:35:22.108Z,3.35
2023-04-06T09:37:51.749Z,3.25
2023-04-06T09:40:20.144Z,3.55
2023-04-06T09:42:49.448Z,3.15
2023-04-06T09:45:16.659Z,3.13
2023-04-06T09:47:46.421Z,3.33
2023-04-06T09:50:15.279Z,3.93
2023-04-06T09:52:51.497Z,3.15
2023-04-06T09:55:34.829Z,3.30
2023-04-06T09:58:07.200Z,3.30
2023-04-06T10:00:54.676Z,3.60
2023-04-06T10:03:57.511Z,3.80
2023-04-06T10:06:28.388Z,3.25
2023-04-06T10:11:24.446Z,3.40
2023-04-06T10:13:51.642Z,2.92
2023-04-06T10:16:19.246Z,4.10
2023-04-06T10:18:53.113Z,3.63
2023-04-06T10:21:28.232Z,3.55
2023-04-06T10:24:11.726Z,3.47
2023-04-06T10:26:38.824Z,4.18
2023-04-06T10:29:06.760Z,3.40
2023-04-06T10:31:33.878Z,3.83
2023-04-06T10:34:04.073Z,4.03
2023-04-06T10:36:35.740Z,4.15
2023-04-06T10:39:06.725Z,3.78
2023-04-06T10:41:46.710Z,6.93
2023-04-06T10:44:25.158Z,3.77
2023-04-06T10:46:58.840Z,4.00
2023-04-06T10:49:28.921Z,4.63
2023-04-06T10:51:57.939Z,3.83
2023-04-06T10:54:27.911Z,3.47
2023-04-06T10:56:55.957Z,3.47
2023-04-06T10:59:25.834Z,3.97
2023-04-06T11:01:54.052Z,3.70
2023-04-06T11:04:22.059Z,3.95
2023-04-06T11:06:51.222Z,5.10
2023-04-06T11:09:27.195Z,3.67
2023-04-06T11:11:54.668Z,3.65
2023-04-06T11:14:21.666Z,3.28
2023-04-06T11:16:52.888Z,3.55
2023-04-06T11:19:20.115Z,3.78
2023-04-06T11:21:50.004Z,3.85
2023-04-06T11:24:25.429Z,3.70
2023-04-06T11:27:01.967Z,3.50
2023-04-06T11:29:31.866Z,3.70
2023-04-06T11:32:06.866Z,3.65
2023-04-06T11:34:42.814Z,3.95
2023-04-06T11:37:13.024Z,3.85
2023-04-06T11:39:53.224Z,4.18
2023-04-06T11:42:29.120Z,4.47
2023-04-06T11:44:58.416Z,3.50
2023-04-06T11:47:35.162Z,4.45
2023-04-06T11:50:13.824Z,4.65
2023-04-06T11:52:43.221Z,4.03
2023-04-06T11:55:17.278Z,4.07
2023-04-06T11:57:46.060Z,3.97
2023-04-06T12:00:13.909Z,3.55
2023-04-06T12:02:46.252Z,3.65
2023-04-06T12:05:13.479Z,3.80
2023-04-06T12:10:09.411Z,4.13
2023-04-06T12:12:36.408Z,3.65
2023-04-06T12:15:03.692Z,3.15
2023-04-06T12:17:30.656Z,4.15
2023-04-06T12:20:05.310Z,2.92
2023-04-06T12:22:37.318Z,3.03
2023-04-06T12:25:04.783Z,3.15
2023-04-06T12:27:31.655Z,3.08
2023-04-06T12:29:58.542Z,3.85
2023-04-06T12:32:25.588Z,3.42
2023-04-06T12:34:54.290Z,4.07
2023-04-06T12:37:21.614Z,3.83
2023-04-06T12:39:48.496Z,3.35
2023-04-06T12:42:15.804Z,3.55
2023-04-06T12:44:43.744Z,3.22
2023-04-06T12:47:11.986Z,3.53
2023-04-06T12:49:39.057Z,5.32
2023-04-06T12:52:06.000Z,3.40
2023-04-06T12:54:33.033Z,4.18
2023-04-06T12:56:59.917Z,3.90
2023-04-06T12:59:26.976Z,4.03
2023-04-06T13:01:54.059Z,3.33
2023-04-06T13:04:21.008Z,3.22
2023-04-06T13:06:47.948Z,3.22
2023-04-06T13:09:14.983Z,2.95
2023-04-06T13:11:42.449Z,2.90
2023-04-06T13:14:09.592Z,2.95
2023-04-06T13:16:37.347Z,2.70
2023-04-06T13:19:04.288Z,2.72
2023-04-06T13:21:31.542Z,3.33
2023-04-06T13:23:58.404Z,3.15
2023-04-06T13:26:26.272Z,3.70
2023-04-06T13:28:53.193Z,3.10
2023-04-06T13:31:20.422Z,3.63
2023-04-06T13:33:47.413Z,2.55
2023-04-06T13:36:17.379Z,3.47
2023-04-06T13:38:45.238Z,3.50
2023-04-06T13:41:21.963Z,3.63
2023-04-06T13:43:49.254Z,3.55
2023-04-06T13:46:16.446Z,3.15
2023-04-06T13:48:44.426Z,3.60
2023-04-06T13:51:16.225Z,3.67
2023-04-06T13:53:43.146Z,3.13
2023-04-06T13:56:10.459Z,3.85
2023-04-06T13:58:37.609Z,4.28
2023-04-06T14:01:11.250Z,4.22
2023-04-06T14:03:40.412Z,3.13
2023-04-06T14:06:20.714Z,3.47
2023-04-06T14:08:48.221Z,3.15
2023-04-06T14:11:15.405Z,3.15
2023-04-06T14:13:42.907Z,3.42
2023-04-06T14:16:10.249Z,3.67
2023-04-06T14:18:38.168Z,3.00
2023-04-06T14:21:05.225Z,3.20
2023-04-06T14:23:33.805Z,3.40
2023-04-06T14:26:09.302Z,3.40
2023-04-06T14:28:37.408Z,3.15
2023-04-06T14:31:14.190Z,2.58
2023-04-06T14:33:42.413Z,2.78
2023-04-06T14:36:10.663Z,3.25
2023-04-06T14:38:39.377Z,2.75
2023-04-06T14:41:06.294Z,2.92
2023-04-06T14:43:33.328Z,2.55
2023-04-06T14:46:03.761Z,2.78
2023-04-06T14:48:30.737Z,2.70
2023-04-06T14:50:58.384Z,2.50
2023-04-06T14:53:25.613Z,2.28
2023-04-06T14:55:52.869Z,2.35
2023-04-06T14:58:21.399Z,2.28
2023-04-06T15:00:49.075Z,2.00
2023-04-06T15:03:17.180Z,2.05
2023-04-06T15:05:44.235Z,2.13
2023-04-06T15:08:11.156Z,2.58
2023-04-06T15:10:38.075Z,1.85
2023-04-06T15:13:05.081Z,2.00
2023-04-06T15:15:31.976Z,2.33
2023-04-06T15:17:59.117Z,2.13
2023-04-06T15:20:25.978Z,2.28
2023-04-06T15:22:52.796Z,2.25
2023-04-06T15:25:19.730Z,2.30
2023-04-06T15:27:46.673Z,2.08
2023-04-06T15:30:14.035Z,2.97
2023-04-06T15:32:40.882Z,1.90
2023-04-06T15:35:14.052Z,2.20
2023-04-06T15:37:40.980Z,2.35
2023-04-06T15:40:09.067Z,2.00
2023-04-06T15:42:35.894Z,2.20
2023-04-06T15:45:02.855Z,2.53
2023-04-06T15:47:29.762Z,1.98
2023-04-06T15:49:56.688Z,1.70
2023-04-06T15:52:23.693Z,1.75
2023-04-06T15:54:50.682Z,1.52
2023-04-06T15:57:17.698Z,1.80
2023-04-06T15:59:44.944Z,1.38
2023-04-06T16:02:11.999Z,1.60
2023-04-06T16:04:39.026Z,1.52
2023-04-06T16:07:06.118Z,1.65
2023-04-06T16:09:32.964Z,1.85
2023-04-06T16:11:59.809Z,3.30
2023-04-06T16:14:26.851Z,2.22
2023-04-06T16:16:54.887Z,2.92
2023-04-06T16:19:21.833Z,2.13
2023-04-06T16:21:48.776Z,2.17
2023-04-06T16:24:15.688Z,1.98
2023-04-06T16:26:44.346Z,2.60
2023-04-06T16:29:11.204Z,2.28
2023-04-06T16:31:38.258Z,2.22
2023-04-06T16:34:05.138Z,1.83
2023-04-06T16:36:33.673Z,1.65
2023-04-06T16:39:02.278Z,2.03
2023-04-06T16:41:29.374Z,1.55
2023-04-06T16:43:57.323Z,1.80
2023-04-06T16:46:35.870Z,1.63
2023-04-06T16:49:05.828Z,1.95
2023-04-06T16:51:33.168Z,1.50
2023-04-06T16:54:02.259Z,1.77
2023-04-06T16:56:29.384Z,1.60
2023-04-06T16:58:56.478Z,1.40
2023-04-06T17:01:26.676Z,1.50
2023-04-06T17:03:55.069Z,2.20
2023-04-06T17:06:23.102Z,1.92
2023-04-06T17:08:51.342Z,2.63
2023-04-06T17:11:23.484Z,2.53
2023-04-06T17:13:54.902Z,2.67
2023-04-06T17:16:21.854Z,2.58
2023-04-06T17:18:48.782Z,2.13
2023-04-06T17:21:16.963Z,2.13
2023-04-06T17:23:44.574Z,2.58
2023-04-06T17:26:11.703Z,3.00
2023-04-06T17:28:38.957Z,2.47
2023-04-06T17:31:11.528Z,5.28
2023-04-06T17:33:41.121Z,10.32
2023-04-06T17:36:10.905Z,13.38
2023-04-06T17:38:43.416Z,10.27
2023-04-06T17:41:12.697Z,6.70
2023-04-06T17:43:40.170Z,7.00
2023-04-06T17:46:07.254Z,8.95
2023-04-06T17:48:34.241Z,9.77
2023-04-06T17:51:01.296Z,11.85
2023-04-06T17:53:32.162Z,13.55
2023-04-06T17:58:31.168Z,18.05
2023-04-06T18:00:58.390Z,20.95
2023-04-06T18:03:25.569Z,20.02
2023-04-06T18:05:52.591Z,13.65
2023-04-06T18:08:19.457Z,13.00
2023-04-06T18:10:48.284Z,8.80
2023-04-06T18:13:15.627Z,10.80
2023-04-06T18:15:42.582Z,8.60
2023-04-06T18:18:09.459Z,11.38
2023-04-06T18:20:41.451Z,9.85
2023-04-06T18:23:08.328Z,9.65
2023-04-06T18:25:39.627Z,7.70
2023-04-06T18:28:08.793Z,8.93
2023-04-06T18:30:36.706Z,8.38
2023-04-06T18:33:04.207Z,7.10
2023-04-06T18:35:31.172Z,4.88
2023-04-06T18:37:57.968Z,6.05
2023-04-06T18:40:39.205Z,6.22
2023-04-06T18:43:08.185Z,4.60
2023-04-06T18:45:38.949Z,6.35
2023-04-06T18:48:06.824Z,8.27
2023-04-06T18:50:34.106Z,7.65
2023-04-06T18:53:01.183Z,10.32
2023-04-06T18:55:28.319Z,8.30
2023-04-06T18:57:55.451Z,15.95
2023-04-06T19:00:22.320Z,14.57
2023-04-06T19:02:49.259Z,13.35
2023-04-06T19:05:16.599Z,11.15
2023-04-06T19:07:43.567Z,13.40
2023-04-06T19:10:11.037Z,11.80
2023-04-06T19:12:40.111Z,13.18
2023-04-06T19:15:08.411Z,10.88
2023-04-06T19:17:35.902Z,11.05
2023-04-06T19:20:03.102Z,8.57
2023-04-06T19:22:30.002Z,10.57
2023-04-06T19:24:57.146Z,11.00
2023-04-06T19:27:23.992Z,17.50
2023-04-06T19:29:50.866Z,10.48
2023-04-06T19:32:17.865Z,9.77
2023-04-06T19:34:44.766Z,6.65
2023-04-06T19:37:11.706Z,5.85
2023-04-06T19:39:38.798Z,9.75
2023-04-06T19:42:05.747Z,7.28
2023-04-06T19:44:32.676Z,11.55
2023-04-06T19:46:59.575Z,9.80
2023-04-06T19:49:28.339Z,8.90
2023-04-06T19:51:55.743Z,10.85
2023-04-06T19:54:23.707Z,9.07
2023-04-06T19:56:50.841Z,15.50
2023-04-06T19:59:17.899Z,11.25
2023-04-06T20:01:46.263Z,12.57
2023-04-06T20:04:13.559Z,10.13
2023-04-06T20:06:40.672Z,17.20
2023-04-06T20:09:07.939Z,13.20
2023-04-06T20:11:36.253Z,10.05
2023-04-06T20:14:03.273Z,8.55
2023-04-06T20:16:30.219Z,8.68
2023-04-06T20:18:57.137Z,7.90
2023-04-06T20:21:24.027Z,8.50
2023-04-06T20:23:50.997Z,8.32
2023-04-06T20:26:18.098Z,7.63
2023-04-06T20:28:45.364Z,7.60
2023-04-06T20:31:12.412Z,7.70
2023-04-06T20:33:40.080Z,8.20
2023-04-06T20:36:07.225Z,6.45
2023-04-06T20:38:34.293Z,7.50
2023-04-06T20:41:02.396Z,7.03
2023-04-06T20:43:30.215Z,9.80
2023-04-06T20:45:58.707Z,10.70
2023-04-06T20:48:26.441Z,9.70
2023-04-06T20:50:53.729Z,7.53
2023-04-06T20:53:20.896Z,7.07
2023-04-06T20:55:48.118Z,8.18
2023-04-06T20:58:20.698Z,6.68
2023-04-06T21:00:49.611Z,6.57
2023-04-06T21:03:17.794Z,6.32
2023-04-06T21:05:59.028Z,7.18
2023-04-06T21:10:52.729Z,8.30
2023-04-06T21:13:19.664Z,6.95
2023-04-06T21:15:46.562Z,7.43
2023-04-06T21:18:13.496Z,8.20
2023-04-06T21:20:40.584Z,10.05
2023-04-06T21:23:07.524Z,7.97
2023-04-06T21:25:37.596Z,9.63
2023-04-06T21:28:05.253Z,8.18
2023-04-06T21:30:37.221Z,8.35
2023-04-06T21:33:07.577Z,7.57
2023-04-06T21:35:40.290Z,10.32
2023-04-06T21:38:08.220Z,11.10
2023-04-06T21:40:35.802Z,9.38
2023-04-06T21:43:03.246Z,11.80
2023-04-06T21:45:30.295Z,8.77
2023-04-06T21:47:57.187Z,10.35
2023-04-06T21:50:24.100Z,9.23
2023-04-06T21:52:51.098Z,7.50
2023-04-06T21:55:18.006Z,7.75
2023-04-06T21:57:45.046Z,6.97
2023-04-06T22:00:12.881Z,9.05
2023-04-06T22:02:41.258Z,7.68
2023-04-06T22:05:08.790Z,8.80
2023-04-06T22:07:36.022Z,7.68
2023-04-06T22:10:03.184Z,5.93
2023-04-06T22:12:30.367Z,5.63
2023-04-06T22:14:57.631Z,6.25
2023-04-06T22:17:24.654Z,5.97
2023-04-06T22:19:52.598Z,5.13
2023-04-06T22:22:19.546Z,5.45
2023-04-06T22:24:46.714Z,6.95
2023-04-06T22:27:13.614Z,6.55
2023-04-06T22:29:40.512Z,4.68
2023-04-06T22:32:07.358Z,4.65
2023-04-06T22:34:34.236Z,6.63
2023-04-06T22:37:01.231Z,7.47
2023-04-06T22:39:28.129Z,6.38
2023-04-06T22:41:54.990Z,4.93
2023-04-06T22:44:21.911Z,5.53
2023-04-06T22:46:48.986Z,5.85
2023-04-06T22:49:15.885Z,4.70
2023-04-06T22:51:42.708Z,6.38
2023-04-06T22:54:10.949Z,5.03
2023-04-06T22:56:38.001Z,5.68
2023-04-06T22:59:04.833Z,5.30
2023-04-06T23:01:31.823Z,4.93
2023-04-06T23:03:58.936Z,7.05
2023-04-06T23:06:27.223Z,5.78
2023-04-06T23:08:54.176Z,5.55
2023-04-06T23:11:22.252Z,7.70
2023-04-06T23:13:49.103Z,5.82
2023-04-06T23:16:16.113Z,5.22
2023-04-06T23:18:43.298Z,4.60
2023-04-06T23:21:10.369Z,5.15
2023-04-06T23:23:37.291Z,4.18
2023-04-06T23:26:04.371Z,4.93
2023-04-06T23:28:31.427Z,4.88
2023-04-06T23:30:58.268Z,4.35
2023-04-06T23:33:25.148Z,3.58
2023-04-06T23:35:52.198Z,4.18
2023-04-06T23:38:19.205Z,4.70
2023-04-06T23:40:46.268Z,6.65
2023-04-06T23:43:13.092Z,4.65
2023-04-06T23:45:42.308Z,4.00
2023-04-06T23:48:10.387Z,4.30
2023-04-06T23:50:37.672Z,4.13
2023-04-06T23:53:05.159Z,4.10
2023-04-06T23:55:32.123Z,4.72
2023-04-06T23:57:59.318Z,3.97
